createdAt,value
2017-11-26T06:54:06.833Z,95.00
2017-11-26T06:56:33.308Z,95.00
2017-11-26T06:58:59.723Z,94.10
2017-11-26T07:01:26.133Z,93.50
2017-11-26T07:03:52.531Z,92.40
2017-11-26T07:06:18.941Z,92.10
2017-11-26T07:08:45.320Z,91.30
2017-11-26T07:11:12.522Z,90.80
2017-11-26T07:13:38.974Z,90.80
2017-11-26T07:16:05.345Z,90.60
2017-11-26T07:18:31.765Z,90.30
2017-11-26T07:20:58.398Z,90.20
2017-11-26T07:23:24.832Z,90.10
2017-11-26T07:25:51.349Z,90.30
2017-11-26T07:28:17.771Z,90.10
2017-11-26T07:30:44.177Z,90.10
2017-11-26T07:33:10.580Z,90.20
2017-11-26T07:35:36.950Z,90.00
2017-11-26T07:38:03.345Z,89.90
2017-11-26T07:40:30.508Z,90.20
2017-11-26T07:42:57.675Z,90.10
2017-11-26T07:45:24.132Z,90.20
2017-11-26T07:47:50.535Z,90.40
2017-11-26T07:50:16.936Z,90.30
2017-11-26T07:52:44.097Z,90.20
2017-11-26T07:55:10.555Z,90.20
2017-11-26T07:57:37.002Z,90.00
2017-11-26T08:00:04.204Z,89.90
2017-11-26T08:02:31.361Z,89.00
2017-11-26T08:04:58.529Z,88.90
2017-11-26T08:07:25.684Z,88.30
2017-11-26T08:09:52.112Z,88.30
2017-11-26T08:12:18.518Z,89.00
2017-11-26T08:14:45.668Z,88.40
2017-11-26T08:17:12.837Z,87.10
2017-11-26T08:19:39.982Z,85.90
2017-11-26T08:22:07.188Z,86.60
2017-11-26T08:24:33.575Z,86.50
2017-11-26T08:27:00.018Z,86.70
2017-11-26T08:29:26.397Z,87.00
2017-11-26T08:31:52.789Z,87.30
2017-11-26T08:34:19.209Z,87.30
2017-11-26T08:36:45.632Z,87.00
2017-11-26T08:39:13.481Z,85.80
2017-11-26T08:41:39.917Z,85.90
2017-11-26T08:44:07.107Z,85.90
2017-11-26T08:46:33.565Z,85.30
2017-11-26T08:49:00.552Z,86.00
2017-11-26T08:51:27.017Z,85.50
2017-11-26T08:53:53.565Z,85.10
2017-11-26T08:56:20.045Z,83.60
2017-11-26T08:58:47.253Z,84.50
2017-11-26T09:01:13.694Z,84.40
2017-11-26T09:03:40.160Z,85.30
2017-11-26T09:06:06.594Z,85.80
2017-11-26T09:08:36.821Z,85.20
2017-11-26T09:11:04.044Z,84.60
2017-11-26T09:13:30.456Z,84.60
2017-11-26T09:15:56.892Z,83.80
2017-11-26T09:18:23.346Z,84.00
2017-11-26T09:20:49.776Z,83.70
2017-11-26T09:23:16.265Z,83.60
2017-11-26T09:25:43.446Z,84.80
2017-11-26T09:28:09.912Z,84.80
2017-11-26T09:30:36.305Z,84.80
2017-11-26T09:33:02.740Z,84.70
2017-11-26T09:35:29.112Z,84.30
2017-11-26T09:37:55.502Z,84.50
2017-11-26T09:40:21.943Z,84.80
2017-11-26T09:42:48.368Z,84.90
2017-11-26T09:45:15.572Z,84.90
2017-11-26T09:47:42.743Z,85.00
2017-11-26T09:50:09.140Z,85.00
2017-11-26T09:52:36.096Z,83.90
2017-11-26T09:55:03.300Z,83.30
2017-11-26T09:57:29.684Z,83.30
2017-11-26T09:59:56.853Z,83.50
2017-11-26T10:02:23.241Z,83.40
2017-11-26T10:04:49.623Z,83.80
2017-11-26T10:07:16.025Z,83.40
2017-11-26T10:09:43.141Z,81.60
2017-11-26T10:12:09.515Z,81.60
2017-11-26T10:14:36.666Z,80.00
2017-11-26T10:17:03.791Z,79.30
2017-11-26T10:19:30.223Z,79.30
2017-11-26T10:21:56.964Z,79.80
2017-11-26T10:24:23.365Z,81.00
2017-11-26T10:26:49.762Z,81.30
2017-11-26T10:29:16.260Z,82.00
2017-11-26T10:31:42.692Z,80.40
2017-11-26T10:34:09.128Z,79.60
2017-11-26T10:36:35.595Z,80.00
2017-11-26T10:39:02.030Z,79.60
2017-11-26T10:41:28.462Z,79.20
2017-11-26T10:43:54.924Z,78.50
2017-11-26T10:46:21.408Z,79.20
2017-11-26T10:48:48.581Z,79.60
2017-11-26T10:51:15.852Z,79.60
2017-11-26T10:53:42.292Z,77.70
2017-11-26T10:56:08.797Z,78.00
2017-11-26T10:58:35.233Z,77.80
2017-11-26T11:01:01.677Z,76.60
2017-11-26T11:03:28.115Z,76.30
2017-11-26T11:05:54.565Z,75.30
2017-11-26T11:08:21.004Z,76.00
2017-11-26T11:10:48.217Z,77.10
2017-11-26T11:13:14.903Z,77.00
2017-11-26T11:15:41.343Z,76.50
2017-11-26T11:18:07.791Z,76.20
2017-11-26T11:20:35.016Z,76.20
2017-11-26T11:23:01.676Z,76.10
2017-11-26T11:25:28.122Z,75.40
2017-11-26T11:27:55.259Z,74.70
2017-11-26T11:30:22.397Z,74.00
2017-11-26T11:32:48.804Z,74.00
2017-11-26T11:35:15.204Z,75.60
2017-11-26T11:37:41.599Z,75.40
2017-11-26T11:40:08.030Z,73.40
2017-11-26T11:42:34.444Z,72.80
2017-11-26T11:45:00.862Z,74.20
2017-11-26T11:47:27.263Z,74.10
2017-11-26T11:49:54.548Z,73.20
2017-11-26T11:52:21.014Z,73.20
2017-11-26T11:54:48.240Z,74.70
2017-11-26T11:57:14.709Z,74.10
2017-11-26T11:59:41.148Z,73.30
2017-11-26T12:02:08.340Z,71.40
2017-11-26T12:04:34.831Z,71.40
2017-11-26T12:07:02.009Z,70.50
2017-11-26T12:09:28.462Z,70.50
2017-11-26T12:11:54.891Z,70.20
2017-11-26T12:14:21.362Z,68.90
2017-11-26T12:16:47.872Z,68.00
2017-11-26T12:19:14.349Z,67.30
2017-11-26T12:21:41.551Z,68.00
2017-11-26T12:24:08.116Z,67.90
2017-11-26T12:26:34.666Z,67.90
2017-11-26T12:29:01.151Z,68.10
2017-11-26T12:31:27.584Z,68.50
2017-11-26T12:33:54.040Z,67.70
2017-11-26T12:36:20.512Z,69.70
2017-11-26T12:38:47.686Z,68.70
2017-11-26T12:41:14.190Z,68.60
2017-11-26T12:43:41.397Z,67.50
2017-11-26T12:46:07.867Z,67.50
2017-11-26T12:48:35.054Z,65.70
2017-11-26T12:51:01.507Z,65.70
2017-11-26T12:53:28.000Z,65.90
2017-11-26T12:55:55.192Z,63.60
2017-11-26T12:58:21.645Z,63.60
2017-11-26T13:00:48.080Z,62.70
2017-11-26T13:03:14.513Z,64.60
2017-11-26T13:05:41.018Z,64.30
2017-11-26T13:08:07.506Z,63.20
2017-11-26T13:10:34.717Z,64.10
2017-11-26T13:13:01.148Z,64.10
2017-11-26T13:15:27.656Z,63.70
2017-11-26T13:17:54.172Z,63.30
2017-11-26T13:20:20.662Z,63.30
2017-11-26T13:22:47.185Z,61.70
2017-11-26T13:25:13.702Z,61.40
2017-11-26T13:27:40.157Z,62.00
2017-11-26T13:30:06.631Z,61.60
2017-11-26T13:32:33.945Z,61.80
2017-11-26T13:35:00.411Z,61.70
2017-11-26T13:37:26.849Z,62.10
2017-11-26T13:39:54.788Z,61.50
2017-11-26T13:42:21.285Z,61.50
2017-11-26T13:44:47.727Z,61.20
2017-11-26T13:47:14.203Z,60.60
2017-11-26T13:49:41.505Z,59.90
2017-11-26T13:52:07.957Z,59.90
2017-11-26T13:54:34.404Z,60.60
2017-11-26T13:57:00.866Z,60.70
2017-11-26T13:59:27.329Z,60.00
2017-11-26T14:01:53.804Z,60.40
2017-11-26T14:04:20.239Z,62.00
2017-11-26T14:06:46.680Z,62.10
2017-11-26T14:09:13.125Z,61.60
2017-11-26T14:11:40.330Z,61.60
2017-11-26T14:14:06.772Z,61.60
2017-11-26T14:16:33.264Z,60.20
2017-11-26T14:19:00.435Z,59.70
2017-11-26T14:21:26.904Z,59.70
2017-11-26T14:23:53.368Z,60.60
2017-11-26T14:26:19.831Z,61.20
2017-11-26T14:28:46.277Z,61.90
2017-11-26T14:31:13.457Z,61.30
2017-11-26T14:33:39.894Z,61.40
2017-11-26T14:36:06.342Z,60.80
2017-11-26T14:38:32.776Z,60.60
2017-11-26T14:40:59.240Z,60.60
2017-11-26T14:43:26.443Z,62.10
2017-11-26T14:45:52.869Z,62.10
2017-11-26T14:48:19.309Z,61.40
2017-11-26T14:50:45.745Z,63.00
2017-11-26T14:53:12.181Z,64.10
2017-11-26T14:55:38.612Z,63.30
2017-11-26T14:58:05.856Z,65.70
2017-11-26T15:00:32.301Z,65.70
2017-11-26T15:02:58.749Z,65.00
2017-11-26T15:05:25.197Z,65.80
2017-11-26T15:07:52.391Z,66.30
2017-11-26T15:10:18.827Z,66.30
2017-11-26T15:12:45.254Z,66.20
2017-11-26T15:15:11.696Z,66.70
2017-11-26T15:17:39.460Z,67.80
2017-11-26T15:20:05.994Z,67.70
2017-11-26T15:22:32.454Z,66.70
2017-11-26T15:24:58.903Z,66.30
2017-11-26T15:27:25.368Z,66.40
2017-11-26T15:29:51.802Z,67.10
2017-11-26T15:32:18.235Z,67.10
2017-11-26T15:34:44.709Z,67.10
2017-11-26T15:37:11.158Z,67.30
2017-11-26T15:39:37.577Z,68.00
2017-11-26T15:42:04.011Z,68.80
2017-11-26T15:44:31.216Z,68.50
2017-11-26T15:46:57.608Z,68.40
2017-11-26T15:49:24.119Z,68.30
2017-11-26T15:51:50.637Z,68.00
2017-11-26T15:54:17.135Z,68.20
2017-11-26T15:56:44.352Z,69.10
2017-11-26T15:59:10.786Z,69.00
2017-11-26T16:01:37.242Z,69.50
2017-11-26T16:04:03.761Z,69.60
2017-11-26T16:06:30.208Z,70.00
2017-11-26T16:08:56.645Z,70.50
2017-11-26T16:11:23.149Z,70.50
2017-11-26T16:13:49.622Z,70.80
2017-11-26T16:16:16.826Z,70.80
2017-11-26T16:18:43.252Z,70.80
2017-11-26T16:21:10.655Z,71.20
2017-11-26T16:23:37.098Z,71.30
2017-11-26T16:26:04.271Z,71.80
2017-11-26T16:28:30.760Z,71.80
2017-11-26T16:30:58.714Z,72.20
2017-11-26T16:33:26.157Z,72.30
2017-11-26T16:35:52.613Z,72.70
2017-11-26T16:38:19.887Z,74.10
2017-11-26T16:40:47.072Z,73.80
2017-11-26T16:43:13.532Z,73.80
2017-11-26T16:45:40.521Z,73.80
2017-11-26T16:48:07.672Z,74.10
2017-11-26T16:50:34.881Z,74.40
2017-11-26T16:53:01.382Z,74.40
2017-11-26T16:55:27.817Z,75.40
2017-11-26T16:57:54.252Z,75.60
2017-11-26T17:00:20.666Z,75.50
2017-11-26T17:02:47.144Z,75.50
2017-11-26T17:05:13.689Z,75.90
2017-11-26T17:07:40.193Z,75.10
2017-11-26T17:10:06.640Z,74.70
2017-11-26T17:12:33.101Z,74.70
2017-11-26T17:14:59.549Z,74.50
2017-11-26T17:17:26.046Z,74.60
2017-11-26T17:19:52.550Z,74.60
2017-11-26T17:22:19.161Z,75.20
2017-11-26T17:24:46.357Z,76.30
2017-11-26T17:27:13.121Z,76.30
2017-11-26T17:29:39.608Z,76.40
2017-11-26T17:32:06.048Z,76.20
2017-11-26T17:34:32.487Z,75.70
2017-11-26T17:36:59.061Z,75.40
2017-11-26T17:39:25.489Z,76.20
2017-11-26T17:41:51.928Z,77.00
2017-11-26T17:44:19.197Z,77.90
2017-11-26T17:46:46.408Z,78.20
2017-11-26T17:49:12.869Z,78.20
2017-11-26T17:51:39.355Z,78.70
2017-11-26T17:54:05.779Z,79.80
2017-11-26T17:56:32.197Z,78.50
2017-11-26T17:58:59.373Z,79.00
2017-11-26T18:01:25.800Z,79.00
2017-11-26T18:03:52.194Z,79.10
2017-11-26T18:06:18.612Z,78.90
2017-11-26T18:08:45.096Z,79.20
2017-11-26T18:11:11.538Z,79.20
2017-11-26T18:13:37.978Z,79.80
2017-11-26T18:16:04.402Z,80.20
2017-11-26T18:18:30.818Z,80.40
2017-11-26T18:20:57.989Z,80.00
2017-11-26T18:23:24.392Z,79.90
2017-11-26T18:25:51.593Z,79.80
2017-11-26T18:28:18.107Z,79.80
2017-11-26T18:30:44.543Z,80.00
2017-11-26T18:33:10.942Z,79.80
2017-11-26T18:35:38.094Z,80.20
2017-11-26T18:38:05.214Z,80.80
2017-11-26T18:40:31.675Z,80.80
2017-11-26T18:42:58.080Z,80.70
2017-11-26T18:45:24.544Z,80.10
2017-11-26T18:47:51.727Z,80.20
2017-11-26T18:50:18.105Z,80.20
2017-11-26T18:52:45.956Z,80.90
2017-11-26T18:55:12.389Z,80.90
2017-11-26T18:57:38.825Z,81.80
2017-11-26T19:00:05.237Z,81.50
2017-11-26T19:02:31.696Z,81.60
2017-11-26T19:04:58.118Z,82.10
2017-11-26T19:07:24.556Z,81.80
2017-11-26T19:09:50.952Z,82.60
2017-11-26T19:12:17.397Z,82.10
2017-11-26T19:14:43.860Z,81.60
2017-11-26T19:17:10.319Z,82.10
2017-11-26T19:19:37.501Z,83.90
2017-11-26T19:22:03.923Z,83.90
2017-11-26T19:24:30.530Z,83.30
2017-11-26T19:26:57.701Z,83.60
2017-11-26T19:29:24.855Z,83.70
2017-11-26T19:31:51.337Z,83.80
2017-11-26T19:34:18.795Z,82.70
2017-11-26T19:36:45.231Z,82.70
2017-11-26T19:39:11.648Z,82.40
2017-11-26T19:41:38.520Z,82.80
2017-11-26T19:44:05.015Z,82.60
2017-11-26T19:46:31.539Z,82.40
2017-11-26T19:48:58.003Z,82.70
2017-11-26T19:51:24.483Z,83.40
2017-11-26T19:53:51.002Z,83.70
2017-11-26T19:56:18.229Z,84.10
2017-11-26T19:58:45.472Z,84.40
2017-11-26T20:01:11.895Z,84.40
2017-11-26T20:03:38.339Z,84.60
2017-11-26T20:06:04.764Z,84.80
2017-11-26T20:08:31.231Z,84.40
2017-11-26T20:10:58.420Z,83.80
2017-11-26T20:13:24.860Z,83.80
2017-11-26T20:15:51.296Z,83.20
2017-11-26T20:18:17.704Z,83.30
2017-11-26T20:20:44.154Z,83.40
2017-11-26T20:23:10.582Z,83.50
2017-11-26T20:25:36.977Z,83.50
2017-11-26T20:28:04.166Z,82.70
2017-11-26T20:30:30.587Z,82.60
2017-11-26T20:32:57.000Z,81.70
2017-11-26T20:35:24.186Z,82.10
2017-11-26T20:37:51.580Z,82.10
2017-11-26T20:40:18.014Z,81.80
2017-11-26T20:42:44.427Z,82.20
2017-11-26T20:45:10.876Z,81.40
2017-11-26T20:47:37.284Z,81.40
2017-11-26T20:50:03.667Z,80.50
2017-11-26T20:52:30.837Z,80.40
2017-11-26T20:54:57.250Z,80.40
2017-11-26T20:57:24.389Z,81.10
2017-11-26T20:59:50.787Z,81.10
2017-11-26T21:02:17.172Z,80.50
2017-11-26T21:04:43.576Z,80.30
2017-11-26T21:07:09.980Z,80.30
2017-11-26T21:09:36.407Z,80.10
2017-11-26T21:12:02.823Z,79.80
2017-11-26T21:14:29.279Z,79.80
2017-11-26T21:16:55.704Z,79.50
2017-11-26T21:19:22.153Z,79.60
2017-11-26T21:21:48.608Z,79.70
2017-11-26T21:24:15.761Z,79.70
2017-11-26T21:26:42.187Z,79.60
2017-11-26T21:29:09.389Z,79.30
2017-11-26T21:31:35.802Z,79.30
2017-11-26T21:34:02.201Z,79.70
2017-11-26T21:36:28.576Z,79.30
2017-11-26T21:38:54.981Z,80.40
2017-11-26T21:41:22.125Z,80.50
2017-11-26T21:43:48.518Z,80.50
2017-11-26T21:46:15.125Z,81.30
2017-11-26T21:48:41.513Z,80.70
2017-11-26T21:51:07.905Z,80.30
2017-11-26T21:53:34.352Z,80.00
2017-11-26T21:56:00.758Z,79.80
2017-11-26T21:58:27.153Z,79.40
2017-11-26T22:00:53.566Z,79.20
2017-11-26T22:03:19.982Z,79.20
2017-11-26T22:05:59.810Z,79.00
2017-11-26T22:08:39.329Z,79.00
2017-11-26T22:11:06.486Z,78.00
2017-11-26T22:13:32.893Z,78.10
2017-11-26T22:15:59.379Z,78.20
2017-11-26T22:18:25.763Z,78.00
2017-11-26T22:20:52.909Z,77.70
2017-11-26T22:23:20.112Z,77.60
2017-11-26T22:25:46.516Z,77.50
2017-11-26T22:28:12.917Z,77.00
2017-11-26T22:30:40.082Z,77.10
2017-11-26T22:33:07.248Z,77.00
2017-11-26T22:35:33.619Z,77.00
2017-11-26T22:38:00.016Z,76.80
2017-11-26T22:40:26.441Z,76.30
2017-11-26T22:42:52.836Z,76.50
2017-11-26T22:45:19.232Z,76.10
2017-11-26T22:47:45.617Z,76.00
2017-11-26T22:50:12.728Z,76.00
2017-11-26T22:52:39.133Z,75.90
2017-11-26T22:55:05.532Z,76.60
2017-11-26T22:57:32.665Z,77.20
2017-11-26T22:59:59.092Z,77.10
2017-11-26T23:02:25.492Z,76.50
2017-11-26T23:04:51.901Z,76.20
2017-11-26T23:07:18.304Z,76.20
2017-11-26T23:09:45.444Z,76.20
2017-11-26T23:12:11.883Z,76.10
2017-11-26T23:14:38.316Z,76.90
2017-11-26T23:17:05.460Z,76.40
2017-11-26T23:19:32.620Z,76.30
2017-11-26T23:21:59.788Z,76.60
2017-11-26T23:24:26.206Z,76.60
2017-11-26T23:26:53.345Z,77.30
2017-11-26T23:29:20.501Z,77.10
2017-11-26T23:31:46.915Z,77.00
2017-11-26T23:34:13.320Z,76.90
2017-11-26T23:36:39.725Z,76.80
2017-11-26T23:39:06.914Z,76.40
2017-11-26T23:41:34.041Z,76.40
2017-11-26T23:44:00.432Z,76.40
2017-11-26T23:46:27.590Z,76.60
2017-11-26T23:48:54.717Z,76.80
2017-11-26T23:51:21.117Z,76.80
2017-11-26T23:53:47.589Z,76.30
2017-11-26T23:56:14.742Z,76.30
2017-11-26T23:58:41.182Z,75.90
